Time;durP1;ratioP1;P1;durP2;ratioP2;P2;SDS_P1;SDS_P2;PMS_P1;PMS_P2;Temp;Humidity;BMP_temperature;BMP_pressure;BME280_temperature;BME280_humidity;BME280_pressure;Samples;Min_cycle;Max_cycle;Signal;HPM_P1;HPM_P2
2022/07/29 00:03:59;;;;;;;10.30;4.90;;;;;;;15.92;96.78;101019.13;657700;1277;140731;-83
2022/07/29 00:19:03;;;;;;;12.90;6.20;;;;;;;15.68;96.54;101013.58;656412;1278;139679;-82
2022/07/29 00:35:43;;;;;;;15.90;8.20;;;;;;;15.38;96.61;101016.42;657470;1278;140178;-83
2022/07/29 00:49:29;;;;;;;18.10;7.70;;;;;;;15.18;97.32;101017.30;657316;1278;139258;-82
2022/07/29 01:04:33;;;;;;;17.90;6.30;;;;;;;15.05;97.65;101016.59;657199;1277;141112;-82
2022/07/29 01:19:59;;;;;;;7.10;3.70;;;;;;;14.92;98.31;101015.36;657828;1276;139564;-83
2022/07/29 01:35:15;;;;;;;7.00;3.60;;;;;;;14.76;98.99;101025.13;657934;1277;138942;-83
2022/07/29 01:50:21;;;;;;;7.80;4.30;;;;;;;14.69;99.43;101020.90;657455;1277;139349;-82
2022/07/29 02:05:27;;;;;;;7.20;3.90;;;;;;;14.59;99.77;101031.45;657715;1277;139162;-83
2022/07/29 02:20:31;;;;;;;4.60;3.40;;;;;;;14.44;99.93;101032.09;657181;1278;139342;-83
2022/07/29 02:35:37;;;;;;;4.80;3.10;;;;;;;14.30;99.97;101041.64;658058;1277;139057;-82
2022/07/29 02:50:50;;;;;;;7.80;2.80;;;;;;;14.13;99.56;101030.23;657706;1277;139021;-82
2022/07/29 03:05:57;;;;;;;3.60;2.30;;;;;;;14.02;99.52;101026.12;657336;1277;140029;-83
2022/07/29 03:21:02;;;;;;;7.10;3.40;;;;;;;13.99;100.00;101026.20;657179;1278;139080;-82
2022/07/29 03:36:05;;;;;;;4.30;3.00;;;;;;;14.02;99.96;101025.58;657641;1276;140745;-83
2022/07/29 03:51:08;;;;;;;6.60;2.80;;;;;;;14.04;99.98;101029.80;667342;1277;139250;-83
2022/07/29 04:06:12;;;;;;;6.90;2.80;;;;;;;14.19;99.93;101036.02;659128;1277;139346;-82
2022/07/29 04:21:17;;;;;;;4.10;2.90;;;;;;;14.76;100.00;101032.16;657571;1277;138903;-83
2022/07/29 04:36:26;;;;;;;3.80;2.60;;;;;;;15.45;100.00;101031.46;660270;1277;140815;-82
2022/07/29 04:51:35;;;;;;;3.30;2.20;;;;;;;16.13;100.00;101035.05;658276;1277;139459;-83
2022/07/29 05:06:42;;;;;;;8.40;3.80;;;;;;;16.68;100.00;101026.93;657409;1277;139271;-83
2022/07/29 05:21:45;;;;;;;8.20;2.80;;;;;;;17.18;100.00;101025.02;655981;1277;139331;-85
2022/07/29 05:36:48;;;;;;;2.20;1.50;;;;;;;17.81;99.97;101042.78;657244;1277;140052;-85
2022/07/29 05:51:51;;;;;;;1.90;1.40;;;;;;;18.43;96.36;101041.45;658113;1277;139339;-85
2022/07/29 06:06:55;;;;;;;2.50;1.10;;;;;;;18.96;90.88;101032.05;657652;1276;139455;-84
2022/07/29 06:21:58;;;;;;;3.60;1.20;;;;;;;19.94;87.21;101030.48;656910;1276;140284;-85
2022/07/29 06:37:08;;;;;;;0.70;0.70;;;;;;;20.47;80.98;101042.90;657134;1277;138907;-83
2022/07/29 06:52:18;;;;;;;0.80;0.70;;;;;;;20.73;76.31;101044.92;656878;1277;139240;-83
2022/07/29 07:07:21;;;;;;;0.80;0.50;;;;;;;21.12;72.59;101042.20;656871;1277;139321;-82
2022/07/29 07:22:24;;;;;;;2.30;0.90;;;;;;;21.36;70.13;101034.52;657284;1277;139229;-84
2022/07/29 07:37:28;;;;;;;0.90;0.70;;;;;;;22.40;68.51;101040.45;657262;1276;138652;-83
2022/07/29 07:52:31;;;;;;;0.60;0.30;;;;;;;23.23;65.43;101035.16;658186;1277;139591;-83
2022/07/29 08:07:35;;;;;;;1.20;0.80;;;;;;;24.24;62.78;101032.35;657739;1277;138753;-83
2022/07/29 08:22:38;;;;;;;3.00;1.00;;;;;;;24.93;61.09;101035.73;657006;1276;139630;-82
2022/07/29 08:37:41;;;;;;;2.00;0.50;;;;;;;25.63;59.48;101032.70;657761;1277;139542;-84
2022/07/29 08:52:46;;;;;;;1.50;0.70;;;;;;;26.68;58.03;101030.66;657993;1277;138259;-82
2022/07/29 09:07:50;;;;;;;1.40;0.60;;;;;;;27.48;55.94;101020.89;659814;1276;139591;-84
2022/07/29 09:22:54;;;;;;;1.20;0.60;;;;;;;27.79;53.42;101015.02;657338;1277;139275;-83
2022/07/29 09:37:57;;;;;;;2.80;0.90;;;;;;;28.60;50.94;101009.84;656957;1277;139296;-82
2022/07/29 09:53:01;;;;;;;3.20;0.70;;;;;;;29.74;51.23;101007.55;657508;1277;139178;-85
2022/07/29 10:08:05;;;;;;;1.40;1.10;;;;;;;30.64;49.13;101001.26;657484;1277;139322;-82
2022/07/29 10:23:09;;;;;;;0.70;0.50;;;;;;;30.27;48.42;100998.02;657635;1277;303631;-84
2022/07/29 10:38:25;;;;;;;1.10;0.60;;;;;;;29.99;46.56;100981.44;658060;1277;138931;-82
2022/07/29 10:53:47;;;;;;;1.40;0.70;;;;;;;29.90;46.12;100963.52;658438;1276;138329;-82
2022/07/29 11:09:17;;;;;;;4.80;0.80;;;;;;;31.27;45.42;100952.79;658780;1277;138202;-83
2022/07/29 11:24:33;;;;;;;2.30;0.70;;;;;;;31.23;45.06;100944.55;657986;1277;138549;-83
2022/07/29 11:39:44;;;;;;;3.30;0.90;;;;;;;31.24;43.88;100929.96;656298;1277;138483;-82
2022/07/29 11:54:49;;;;;;;2.50;1.50;;;;;;;30.85;43.83;100928.69;656746;1277;139491;-82
2022/07/29 12:10:05;;;;;;;1.00;0.70;;;;;;;30.88;42.86;100916.09;657772;1277;139940;-83
2022/07/29 12:25:15;;;;;;;0.70;0.60;;;;;;;31.45;42.05;100917.67;659236;1277;139283;-88
2022/07/29 12:40:35;;;;;;;1.80;1.00;;;;;;;30.35;42.40;100910.29;658080;1277;138565;-82
2022/07/29 12:55:51;;;;;;;1.30;1.00;;;;;;;29.82;43.85;100909.18;657823;1277;139844;-85
2022/07/29 13:10:54;;;;;;;4.20;3.20;;;;;;;30.02;43.68;100897.34;657794;1277;141095;-80
2022/07/29 13:26:06;;;;;;;3.20;1.30;;;;;;;29.64;43.90;100894.27;655775;1277;138852;-78
2022/07/29 13:41:09;;;;;;;14.30;11.70;;;;;;;30.07;44.14;100879.48;659300;1277;138992;-82
2022/07/29 13:56:13;;;;;;;1.60;1.10;;;;;;;31.24;42.76;100856.98;658709;1277;140335;-82
2022/07/29 14:11:16;;;;;;;1.20;0.70;;;;;;;31.80;42.51;100853.43;657588;1277;139293;-83
2022/07/29 14:26:21;;;;;;;2.30;0.60;;;;;;;32.10;40.62;100848.30;657978;1277;139436;-82
2022/07/29 14:41:28;;;;;;;4.10;1.50;;;;;;;33.21;40.27;100843.04;658207;1277;139816;-83
2022/07/29 14:56:31;;;;;;;1.10;0.70;;;;;;;33.78;39.21;100825.27;657861;1277;138538;-82
2022/07/29 15:11:39;;;;;;;4.80;1.10;;;;;;;31.58;40.60;100820.28;657821;1277;139029;-82
2022/07/29 15:26:43;;;;;;;1.80;0.80;;;;;;;30.74;41.71;100804.23;660129;1277;138454;-82
2022/07/29 15:41:46;;;;;;;1.50;1.10;;;;;;;30.45;43.21;100799.65;658155;1277;139937;-82
2022/07/29 15:56:49;;;;;;;1.70;1.30;;;;;;;30.03;43.60;100789.05;657876;1277;142482;-82
2022/07/29 16:11:53;;;;;;;2.60;0.70;;;;;;;29.64;44.04;100766.68;658980;1277;140556;-85
2022/07/29 16:26:58;;;;;;;2.90;1.10;;;;;;;28.83;45.27;100755.44;663037;1277;138563;-82
2022/07/29 16:42:04;;;;;;;2.50;0.90;;;;;;;28.07;47.15;100750.31;662280;1277;138861;-81
2022/07/29 16:57:08;;;;;;;1.30;0.90;;;;;;;27.95;47.77;100758.89;662084;1276;138329;-81
2022/07/29 17:12:12;;;;;;;5.90;2.40;;;;;;;27.69;48.35;100762.69;659409;1277;140463;-82
2022/07/29 17:27:16;;;;;;;1.40;1.00;;;;;;;27.40;48.60;100770.09;657211;1277;139215;-82
2022/07/29 17:42:20;;;;;;;3.20;1.10;;;;;;;26.74;48.93;100776.39;657628;1277;139647;-83
2022/07/29 17:57:24;;;;;;;3.40;2.00;;;;;;;25.71;49.96;100787.06;659799;1277;138847;-83
2022/07/29 18:12:27;;;;;;;2.10;1.40;;;;;;;25.07;51.18;100794.26;660829;1277;139557;-81
2022/07/29 18:27:30;;;;;;;5.70;1.50;;;;;;;24.60;52.05;100795.13;660478;1276;138824;-82
2022/07/29 18:42:34;;;;;;;3.80;1.70;;;;;;;24.11;52.33;100795.69;660348;1277;140086;-82
2022/07/29 18:57:37;;;;;;;5.30;3.00;;;;;;;23.55;53.46;100792.05;660356;1277;140066;-82
2022/07/29 19:12:59;;;;;;;3.50;2.00;;;;;;;23.04;54.50;100798.44;660996;1276;140458;-82
2022/07/29 19:28:02;;;;;;;6.70;1.90;;;;;;;22.47;55.56;100798.73;661617;1277;140220;-81
2022/07/29 19:43:06;;;;;;;4.60;2.40;;;;;;;22.05;56.70;100807.05;661108;1277;140007;-82
2022/07/29 19:58:30;;;;;;;2.20;1.40;;;;;;;21.62;57.75;100824.81;662300;1277;139709;-83
2022/07/29 20:13:34;;;;;;;3.40;1.60;;;;;;;21.27;58.69;100823.10;662322;1276;139858;-82
2022/07/29 20:28:38;;;;;;;5.20;1.80;;;;;;;21.00;59.62;100826.58;660872;1277;138535;-81
2022/07/29 20:43:44;;;;;;;7.20;2.20;;;;;;;20.73;60.78;100823.55;658670;1278;138649;-81
2022/07/29 20:58:49;;;;;;;9.70;4.30;;;;;;;20.50;61.02;100835.30;659816;1277;138689;-82
2022/07/29 21:13:52;;;;;;;7.80;3.90;;;;;;;20.16;61.80;100836.71;658901;1277;138488;-83
2022/07/29 21:28:56;;;;;;;8.20;3.60;;;;;;;19.71;63.21;100829.91;657400;1277;138666;-83
2022/07/29 21:43:59;;;;;;;10.20;4.70;;;;;;;19.37;64.35;100820.34;662259;1277;140067;-81
2022/07/29 21:59:03;;;;;;;7.80;3.50;;;;;;;18.93;65.40;100818.48;659469;1277;138965;-81
2022/07/29 22:14:14;;;;;;;;;;;;;;;18.61;66.52;100818.98;658456;1277;138404;-81
2022/07/29 22:29:17;;;;;;;26.40;12.80;;;;;;;18.31;67.93;100814.02;657975;1277;360885;-81
2022/07/29 22:44:21;;;;;;;9.80;4.80;;;;;;;17.97;68.53;100798.51;657767;1277;139842;-82
2022/07/29 22:59:24;;;;;;;7.30;4.30;;;;;;;17.68;69.39;100789.29;657989;1277;139785;-81
2022/07/29 23:14:27;;;;;;;10.80;4.80;;;;;;;17.38;70.35;100783.58;657734;1277;138301;-82
2022/07/29 23:29:31;;;;;;;10.60;3.80;;;;;;;17.06;71.57;100776.61;658476;1277;139932;-82
2022/07/29 23:44:38;;;;;;;6.60;2.40;;;;;;;16.85;72.74;100777.55;659945;1277;139344;-83
2022/07/29 23:59:41;;;;;;;3.30;2.20;;;;;;;16.71;73.46;100779.39;656399;1277;138417;-82
